createdAt,value
2022-08-08T00:00:52.783Z,85.60
2022-08-08T00:03:31.411Z,85.10
2022-08-08T00:06:36.653Z,85.70
2022-08-08T00:09:36.734Z,85.40
2022-08-08T00:12:31.262Z,86.00
2022-08-08T00:15:24.261Z,86.60
2022-08-08T00:18:43.788Z,86.40
2022-08-08T00:21:39.774Z,85.90
2022-08-08T00:24:36.924Z,86.90
2022-08-08T00:27:32.841Z,87.30
2022-08-08T00:30:23.765Z,86.50
2022-08-08T00:33:24.257Z,88.10
2022-08-08T00:36:38.264Z,87.20
2022-08-08T00:41:06.451Z,87.00
2022-08-08T00:43:29.620Z,87.20
2022-08-08T00:46:57.685Z,88.30
2022-08-08T00:50:21.895Z,87.10
2022-08-08T00:53:16.856Z,88.40
2022-08-08T00:56:41.640Z,88.30
2022-08-08T00:59:44.526Z,89.30
2022-08-08T01:04:00.267Z,90.50
2022-08-08T01:06:16.174Z,90.10
2022-08-08T01:09:36.453Z,90.30
2022-08-08T01:13:01.104Z,90.20
2022-08-08T01:16:27.706Z,90.50
2022-08-08T01:20:01.435Z,90.40
2022-08-08T01:23:01.011Z,91.00
2022-08-08T01:26:24.161Z,91.30
2022-08-08T01:29:58.743Z,91.00
2022-08-08T01:33:43.070Z,91.60
2022-08-08T01:36:58.369Z,90.90
2022-08-08T01:40:28.204Z,91.60
2022-08-08T01:43:39.706Z,91.70
2022-08-08T01:47:06.052Z,91.10
2022-08-08T01:50:36.456Z,91.50
2022-08-08T01:55:15.672Z,92.10
2022-08-08T01:56:55.527Z,92.10
2022-08-08T02:00:02.101Z,91.60
2022-08-08T02:03:55.858Z,92.20
2022-08-08T02:06:36.935Z,92.10
2022-08-08T02:10:03.559Z,92.30
2022-08-08T02:12:57.369Z,92.50
2022-08-08T02:15:58.216Z,93.10
2022-08-08T02:18:58.889Z,93.10
2022-08-08T02:22:21.003Z,93.10
2022-08-08T02:25:47.432Z,93.40
2022-08-08T02:28:39.676Z,93.70
2022-08-08T02:32:00.720Z,94.40
2022-08-08T02:35:07.613Z,94.10
2022-08-08T02:38:30.307Z,94.70
2022-08-08T02:42:05.930Z,94.20
2022-08-08T02:45:18.659Z,94.50
2022-08-08T02:48:42.879Z,94.70
2022-08-08T02:52:32.664Z,94.80
2022-08-08T02:55:36.362Z,94.80
2022-08-08T02:58:32.281Z,95.20
2022-08-08T03:01:39.991Z,95.30
2022-08-08T03:05:18.772Z,95.50
2022-08-08T03:08:27.057Z,95.80
2022-08-08T03:12:02.214Z,95.80
2022-08-08T03:15:56.636Z,95.80
2022-08-08T03:18:14.169Z,96.50
2022-08-08T03:21:09.709Z,97.00
2022-08-08T03:23:59.689Z,97.00
2022-08-08T03:26:54.572Z,97.00
2022-08-08T03:29:56.241Z,97.50
2022-08-08T03:33:07.969Z,97.80
2022-08-08T03:36:19.719Z,98.40
2022-08-08T03:39:14.769Z,98.40
2022-08-08T03:42:26.957Z,98.80
2022-08-08T03:46:03.103Z,98.90
2022-08-08T03:49:10.116Z,98.90
2022-08-08T03:51:40.586Z,99.70
2022-08-08T03:54:41.827Z,99.30
2022-08-08T03:58:09.569Z,98.60
2022-08-08T04:01:23.019Z,98.70
2022-08-08T04:04:08.793Z,98.30
2022-08-08T04:07:01.284Z,98.30
2022-08-08T04:10:05.457Z,98.00
2022-08-08T04:12:54.992Z,98.40
2022-08-08T04:16:03.300Z,98.40
2022-08-08T04:18:48.918Z,98.30
2022-08-08T04:21:41.236Z,98.70
2022-08-08T04:24:31.965Z,98.90
2022-08-08T04:28:02.534Z,99.20
2022-08-08T04:30:28.386Z,98.60
2022-08-08T04:33:22.779Z,98.10
2022-08-08T04:36:10.344Z,97.70
2022-08-08T04:39:48.177Z,97.80
2022-08-08T04:42:02.294Z,98.00
2022-08-08T04:44:48.054Z,98.10
2022-08-08T04:47:43.225Z,98.30
2022-08-08T04:50:37.496Z,97.70
2022-08-08T04:54:27.281Z,98.00
2022-08-08T04:56:32.915Z,97.60
2022-08-08T04:59:24.292Z,97.60
2022-08-08T05:02:16.452Z,98.00
2022-08-08T05:05:15.902Z,98.20
2022-08-08T05:08:07.068Z,98.70
2022-08-08T05:11:00.427Z,98.80
2022-08-08T05:13:57.872Z,99.00
2022-08-08T05:17:00.603Z,99.00
2022-08-08T05:20:12.329Z,99.20
2022-08-08T05:22:58.810Z,99.20
2022-08-08T05:25:49.538Z,99.00
2022-08-08T05:28:48.232Z,98.90
2022-08-08T05:32:03.810Z,98.70
2022-08-08T05:34:51.487Z,99.20
2022-08-08T05:37:53.061Z,98.50
2022-08-08T05:40:57.501Z,98.20
2022-08-08T05:44:03.455Z,97.90
2022-08-08T05:46:53.696Z,98.20
2022-08-08T05:49:55.845Z,97.90
2022-08-08T05:52:44.837Z,98.40
2022-08-08T05:56:11.365Z,98.70
2022-08-08T05:58:53.682Z,98.30
2022-08-08T06:01:57.327Z,98.20
2022-08-08T06:04:55.025Z,98.70
2022-08-08T06:07:46.292Z,98.40
2022-08-08T06:10:34.873Z,98.40
2022-08-08T06:13:27.103Z,99.00
2022-08-08T06:16:25.023Z,98.80
2022-08-08T06:19:35.418Z,98.50
2022-08-08T06:22:36.511Z,98.20
2022-08-08T06:26:35.295Z,98.30
2022-08-08T06:28:48.862Z,98.70
2022-08-08T06:31:52.372Z,98.00
2022-08-08T06:35:12.097Z,98.20
2022-08-08T06:38:14.040Z,98.00
2022-08-08T06:41:13.300Z,97.50
2022-08-08T06:44:03.810Z,97.20
2022-08-08T06:46:54.067Z,97.50
2022-08-08T06:49:55.112Z,97.50
2022-08-08T06:52:43.764Z,97.40
2022-08-08T06:55:37.625Z,97.30
2022-08-08T06:58:30.304Z,97.20
2022-08-08T07:02:16.921Z,96.90
2022-08-08T07:04:52.480Z,96.50
2022-08-08T07:07:50.814Z,96.50
2022-08-08T07:10:47.537Z,96.50
2022-08-08T07:14:01.029Z,96.50
2022-08-08T07:17:19.037Z,96.40
2022-08-08T07:20:11.238Z,95.60
2022-08-08T07:22:58.324Z,95.40
2022-08-08T07:25:54.735Z,95.50
2022-08-08T07:28:44.227Z,95.50
2022-08-08T07:31:35.314Z,95.40
2022-08-08T07:34:31.782Z,95.30
2022-08-08T07:37:23.493Z,95.40
2022-08-08T07:40:11.101Z,94.80
2022-08-08T07:43:08.726Z,94.50
2022-08-08T07:46:18.061Z,93.80
2022-08-08T07:49:00.650Z,93.70
2022-08-08T07:51:53.465Z,93.10
2022-08-08T07:55:03.970Z,92.90
2022-08-08T07:57:58.663Z,92.50
2022-08-08T08:00:52.280Z,92.50
2022-08-08T08:04:04.337Z,92.30
2022-08-08T08:06:53.472Z,92.10
2022-08-08T08:09:40.521Z,92.20
2022-08-08T08:12:35.691Z,92.20
2022-08-08T08:15:32.019Z,91.90
2022-08-08T08:18:31.773Z,91.80
2022-08-08T08:21:20.933Z,91.80
2022-08-08T08:24:32.045Z,91.20
2022-08-08T08:27:22.240Z,91.30
2022-08-08T08:30:13.352Z,90.90
2022-08-08T08:33:02.032Z,91.00
2022-08-08T08:36:20.328Z,90.20
2022-08-08T08:38:57.000Z,90.60
2022-08-08T08:41:52.312Z,90.70
2022-08-08T08:44:39.485Z,90.20
2022-08-08T08:47:26.277Z,90.00
2022-08-08T08:50:32.073Z,90.20
2022-08-08T08:53:54.022Z,90.40
2022-08-08T08:56:32.024Z,90.40
2022-08-08T08:59:59.283Z,90.20
2022-08-08T09:02:41.689Z,90.20
2022-08-08T09:05:53.733Z,89.60
2022-08-08T09:08:39.994Z,89.30
2022-08-08T09:11:33.485Z,89.40
2022-08-08T09:14:24.002Z,89.20
2022-08-08T09:17:19.050Z,89.70
2022-08-08T09:21:56.926Z,88.80
2022-08-08T09:23:17.357Z,89.10
2022-08-08T09:26:24.138Z,89.30
2022-08-08T09:29:24.544Z,89.70
2022-08-08T09:32:19.467Z,89.60
2022-08-08T09:35:10.597Z,90.00
2022-08-08T09:38:04.223Z,89.70
2022-08-08T09:40:59.672Z,89.60
2022-08-08T09:44:05.417Z,89.40
2022-08-08T09:46:57.523Z,89.40
2022-08-08T09:49:55.558Z,89.50
2022-08-08T09:53:23.555Z,88.80
2022-08-08T09:56:27.679Z,88.40
2022-08-08T10:00:34.231Z,87.30
2022-08-08T10:03:04.156Z,87.60
2022-08-08T10:05:50.145Z,87.40
2022-08-08T10:08:53.126Z,87.50
2022-08-08T10:12:27.931Z,86.70
2022-08-08T10:14:44.845Z,85.50
2022-08-08T10:17:57.478Z,85.20
2022-08-08T10:20:58.268Z,84.80
2022-08-08T10:23:58.997Z,84.80
2022-08-08T10:26:56.819Z,84.80
2022-08-08T10:30:03.875Z,84.20
2022-08-08T10:33:00.426Z,83.90
2022-08-08T10:36:20.609Z,83.60
2022-08-08T10:39:07.159Z,83.70
2022-08-08T10:42:15.154Z,83.30
2022-08-08T10:45:08.991Z,82.50
2022-08-08T10:47:58.363Z,82.30
2022-08-08T10:50:45.138Z,81.90
2022-08-08T10:53:56.889Z,81.50
2022-08-08T10:56:43.682Z,80.70
2022-08-08T10:59:31.423Z,79.70
2022-08-08T11:02:32.487Z,79.60
2022-08-08T11:05:18.758Z,78.20
2022-08-08T11:08:38.830Z,75.80
2022-08-08T11:11:31.931Z,77.20
2022-08-08T11:14:31.093Z,76.60
2022-08-08T11:17:58.139Z,76.70
2022-08-08T11:20:29.636Z,75.90
2022-08-08T11:23:21.119Z,76.00
2022-08-08T11:26:07.091Z,75.30
2022-08-08T11:28:53.685Z,75.50
2022-08-08T11:31:48.604Z,75.40
2022-08-08T11:34:52.603Z,75.10
2022-08-08T11:38:35.411Z,73.80
2022-08-08T11:40:52.598Z,74.00
2022-08-08T11:43:41.874Z,73.50
2022-08-08T11:46:31.372Z,73.30
2022-08-08T11:49:17.509Z,68.00
2022-08-08T11:52:03.527Z,70.10
2022-08-08T11:54:50.040Z,71.20
2022-08-08T11:57:40.223Z,71.40
2022-08-08T12:00:28.868Z,70.40
2022-08-08T12:03:24.045Z,70.50
2022-08-08T12:06:18.696Z,70.00
2022-08-08T12:09:09.185Z,69.10
2022-08-08T12:11:54.985Z,68.90
2022-08-08T12:14:41.189Z,69.40
2022-08-08T12:17:50.782Z,69.50
2022-08-08T12:20:39.053Z,69.30
2022-08-08T12:23:43.693Z,69.60
2022-08-08T12:26:43.908Z,69.10
2022-08-08T12:29:42.151Z,68.70
2022-08-08T12:32:31.450Z,69.00
2022-08-08T12:35:22.989Z,69.10
2022-08-08T12:38:09.265Z,69.00
2022-08-08T12:41:33.740Z,68.30
2022-08-08T12:44:32.366Z,68.20
2022-08-08T12:47:58.006Z,67.70
2022-08-08T12:50:46.911Z,67.40
2022-08-08T12:53:36.449Z,66.90
2022-08-08T12:56:39.193Z,66.60
2022-08-08T12:59:44.712Z,66.10
2022-08-08T13:02:37.005Z,65.90
2022-08-08T13:05:26.984Z,65.10
2022-08-08T13:09:01.445Z,64.80
2022-08-08T13:12:19.558Z,64.10
2022-08-08T13:15:03.241Z,63.10
2022-08-08T13:18:09.759Z,62.20
2022-08-08T13:20:56.054Z,62.40
2022-08-08T13:23:46.352Z,60.80
2022-08-08T13:26:32.880Z,61.90
2022-08-08T13:29:18.548Z,60.80
2022-08-08T13:32:07.137Z,61.90
2022-08-08T13:34:59.221Z,61.60
2022-08-08T13:38:05.729Z,61.40
2022-08-08T13:40:51.829Z,61.00
2022-08-08T13:43:38.412Z,60.10
2022-08-08T13:46:27.392Z,59.70
2022-08-08T13:50:37.542Z,59.40
2022-08-08T13:52:38.024Z,59.50
2022-08-08T13:55:29.023Z,59.60
2022-08-08T13:58:21.877Z,59.40
2022-08-08T14:01:19.200Z,59.30
2022-08-08T14:04:20.128Z,58.90
2022-08-08T14:07:08.793Z,58.40
2022-08-08T14:10:11.802Z,58.10
2022-08-08T14:13:10.067Z,58.10
2022-08-08T14:16:16.738Z,57.80
2022-08-08T14:19:02.815Z,57.70
2022-08-08T14:21:53.780Z,57.80
2022-08-08T14:24:39.717Z,57.80
2022-08-08T14:27:35.671Z,57.60
2022-08-08T14:30:33.939Z,57.40
2022-08-08T14:33:34.022Z,57.10
2022-08-08T14:36:34.536Z,56.70
2022-08-08T14:39:21.047Z,56.80
2022-08-08T14:42:10.671Z,56.70
2022-08-08T14:45:03.637Z,56.70
2022-08-08T14:47:53.255Z,56.60
2022-08-08T14:50:39.774Z,56.50
2022-08-08T14:53:37.337Z,56.50
2022-08-08T14:56:42.635Z,55.90
2022-08-08T14:59:43.608Z,55.80
2022-08-08T15:02:32.581Z,55.70
2022-08-08T15:05:22.428Z,55.80
2022-08-08T15:08:22.064Z,55.20
2022-08-08T15:11:20.722Z,55.10
2022-08-08T15:14:11.208Z,55.00
2022-08-08T15:16:59.250Z,54.70
2022-08-08T15:19:49.085Z,54.80
2022-08-08T15:22:35.677Z,54.60
2022-08-08T15:25:29.185Z,54.40
2022-08-08T15:28:33.980Z,54.50
2022-08-08T15:31:26.158Z,54.50
2022-08-08T15:34:29.400Z,54.70
2022-08-08T15:37:17.665Z,54.70
2022-08-08T15:40:06.524Z,54.80
2022-08-08T15:42:57.405Z,54.90
2022-08-08T15:45:45.069Z,54.90
2022-08-08T15:48:34.463Z,54.70
2022-08-08T15:51:22.794Z,54.50
2022-08-08T15:54:37.603Z,54.60
2022-08-08T15:57:18.208Z,54.80
2022-08-08T16:00:26.145Z,55.10
2022-08-08T16:03:11.077Z,54.80
2022-08-08T16:06:02.102Z,55.00
2022-08-08T16:13:01.954Z,55.10
2022-08-08T16:13:14.783Z,55.10
2022-08-08T16:15:04.269Z,55.50
2022-08-08T16:18:06.540Z,55.40
2022-08-08T16:21:00.724Z,55.40
2022-08-08T16:23:47.936Z,55.50
2022-08-08T16:26:36.961Z,55.90
2022-08-08T16:29:23.802Z,56.40
2022-08-08T16:32:27.519Z,56.80
2022-08-08T16:35:14.178Z,57.20
2022-08-08T16:38:04.619Z,57.50
2022-08-08T16:40:53.229Z,57.80
2022-08-08T16:43:48.801Z,58.10
2022-08-08T16:46:46.270Z,58.40
2022-08-08T16:49:38.339Z,58.90
2022-08-08T16:55:00.271Z,59.30
2022-08-08T16:55:53.773Z,59.60
2022-08-08T16:58:37.294Z,59.70
2022-08-08T17:01:25.153Z,59.70
2022-08-08T17:04:16.688Z,60.20
2022-08-08T17:07:03.358Z,60.80
2022-08-08T17:09:52.182Z,61.00
2022-08-08T17:12:37.919Z,61.00
2022-08-08T17:15:23.495Z,61.60
2022-08-08T17:18:15.993Z,61.90
2022-08-08T17:21:02.086Z,61.70
2022-08-08T17:24:01.438Z,61.30
2022-08-08T17:26:48.313Z,60.70
2022-08-08T17:29:36.356Z,60.80
2022-08-08T17:33:03.758Z,61.00
2022-08-08T17:35:54.267Z,61.30
2022-08-08T17:38:40.493Z,61.30
2022-08-08T17:41:30.658Z,61.00
2022-08-08T17:44:27.054Z,60.80
2022-08-08T17:47:24.110Z,61.60
2022-08-08T17:50:12.886Z,61.70
2022-08-08T17:52:59.369Z,61.60
2022-08-08T17:56:06.108Z,62.10
2022-08-08T17:58:51.132Z,62.20
2022-08-08T18:01:51.090Z,62.40
2022-08-08T18:04:48.595Z,63.00
2022-08-08T18:08:04.272Z,62.40
2022-08-08T18:10:43.498Z,63.00
2022-08-08T18:13:29.195Z,62.60
2022-08-08T18:16:23.607Z,63.30
2022-08-08T18:19:15.340Z,62.60
2022-08-08T18:22:02.734Z,63.30
2022-08-08T18:24:51.212Z,63.50
2022-08-08T18:27:38.216Z,63.00
2022-08-08T18:30:28.629Z,62.60
2022-08-08T18:33:36.220Z,63.40
2022-08-08T18:36:23.358Z,63.30
2022-08-08T18:39:11.327Z,64.30
2022-08-08T18:42:16.321Z,64.10
2022-08-08T18:45:08.932Z,64.00
2022-08-08T18:47:55.301Z,64.90
2022-08-08T18:50:50.058Z,64.00
2022-08-08T18:54:02.842Z,64.10
2022-08-08T18:56:50.105Z,64.40
2022-08-08T18:59:38.384Z,64.60
2022-08-08T19:02:29.944Z,64.70
2022-08-08T19:05:15.947Z,63.60
2022-08-08T19:08:25.521Z,64.50
2022-08-08T19:11:22.475Z,64.60
2022-08-08T19:14:08.502Z,64.10
2022-08-08T19:16:58.375Z,64.50
2022-08-08T19:20:02.178Z,63.90
2022-08-08T19:22:48.977Z,64.20
2022-08-08T19:26:26.999Z,64.30
2022-08-08T19:28:43.369Z,65.00
2022-08-08T19:31:31.651Z,65.10
2022-08-08T19:34:36.357Z,65.40
2022-08-08T19:37:43.705Z,66.20
2022-08-08T19:40:32.916Z,67.50
2022-08-08T19:43:19.602Z,67.10
2022-08-08T19:46:10.176Z,67.20
2022-08-08T19:49:01.411Z,67.60
2022-08-08T19:51:49.796Z,67.50
2022-08-08T19:54:38.469Z,67.40
2022-08-08T19:57:24.978Z,67.50
2022-08-08T20:00:30.420Z,67.70
2022-08-08T20:04:00.535Z,68.10
2022-08-08T20:06:23.129Z,68.10
2022-08-08T20:09:09.267Z,68.50
2022-08-08T20:11:54.833Z,68.60
2022-08-08T20:14:42.265Z,68.60
2022-08-08T20:17:40.791Z,69.10
2022-08-08T20:20:27.668Z,68.90
2022-08-08T20:23:16.124Z,69.30
2022-08-08T20:26:01.761Z,69.40
2022-08-08T20:28:48.046Z,69.70
2022-08-08T20:32:07.158Z,69.80
2022-08-08T20:34:47.473Z,70.30
2022-08-08T20:37:46.950Z,71.40
2022-08-08T20:40:41.022Z,72.40
2022-08-08T20:43:43.993Z,72.80
2022-08-08T20:46:33.303Z,74.10
2022-08-08T20:49:19.753Z,73.70
2022-08-08T20:52:08.237Z,73.90
2022-08-08T20:54:55.249Z,74.90
2022-08-08T20:57:43.959Z,74.90
2022-08-08T21:00:36.979Z,74.50
2022-08-08T21:03:29.857Z,74.80
2022-08-08T21:06:15.947Z,74.80
2022-08-08T21:09:01.420Z,75.70
2022-08-08T21:11:50.424Z,75.40
2022-08-08T21:14:38.158Z,76.20
2022-08-08T21:17:25.131Z,75.70
2022-08-08T21:20:11.370Z,75.00
2022-08-08T21:22:56.834Z,75.20
2022-08-08T21:25:43.826Z,75.70
2022-08-08T21:28:35.678Z,75.70
2022-08-08T21:31:21.625Z,75.50
2022-08-08T21:34:09.172Z,75.80
2022-08-08T21:37:16.248Z,76.00
2022-08-08T21:40:05.549Z,76.20
2022-08-08T21:42:53.757Z,76.60
2022-08-08T21:48:01.766Z,76.70
2022-08-08T21:48:56.198Z,76.90
2022-08-08T21:54:18.739Z,77.20
2022-08-08T21:55:02.583Z,76.80
2022-08-08T21:57:56.725Z,77.20
2022-08-08T22:00:54.877Z,77.50
2022-08-08T22:03:40.819Z,78.00
2022-08-08T22:06:31.198Z,78.10
2022-08-08T22:09:17.805Z,78.00
2022-08-08T22:12:09.152Z,78.30
2022-08-08T22:14:55.367Z,78.80
2022-08-08T22:17:45.439Z,79.00
2022-08-08T22:20:31.684Z,79.10
2022-08-08T22:23:17.602Z,79.30
2022-08-08T22:26:26.882Z,79.30
2022-08-08T22:29:57.151Z,80.80
2022-08-08T22:32:15.196Z,82.20
2022-08-08T22:35:04.023Z,83.70
2022-08-08T22:37:54.836Z,84.90
2022-08-08T22:40:41.468Z,86.00
2022-08-08T22:43:27.161Z,87.00
2022-08-08T22:46:17.625Z,87.90
2022-08-08T22:49:03.562Z,88.90
2022-08-08T22:51:51.608Z,89.50
2022-08-08T22:54:58.955Z,90.10
2022-08-08T22:57:49.577Z,90.60
2022-08-08T23:00:35.388Z,90.90
2022-08-08T23:03:21.199Z,91.20
2022-08-08T23:06:06.932Z,91.50
2022-08-08T23:08:58.068Z,91.80
2022-08-08T23:12:18.299Z,92.10
2022-08-08T23:14:53.512Z,92.00
2022-08-08T23:17:46.805Z,92.50
2022-08-08T23:20:44.227Z,92.80
2022-08-08T23:23:31.403Z,92.90
2022-08-08T23:26:17.030Z,93.20
2022-08-08T23:29:03.478Z,94.00
2022-08-08T23:31:51.933Z,93.70
2022-08-08T23:34:38.358Z,94.10
2022-08-08T23:37:24.382Z,94.30
2022-08-08T23:40:10.643Z,94.50
2022-08-08T23:42:56.283Z,94.60
2022-08-08T23:49:00.920Z,95.00
2022-08-08T23:49:06.940Z,95.20
2022-08-08T23:52:06.838Z,95.40
2022-08-08T23:55:07.279Z,95.60
2022-08-08T23:58:01.615Z,96.00
